Time;durP1;ratioP1;P1;durP2;ratioP2;P2;SDS_P1;SDS_P2;PMS_P1;PMS_P2;Temp;Humidity;BMP_temperature;BMP_pressure;BME280_temperature;BME280_humidity;BME280_pressure;Samples;Min_cycle;Max_cycle;Signal;HPM_P1;HPM_P2
2021/09/22 05:07:40;;;;;;;10.80;9.55;;;;;;;9.46;73.31;101140.72;1077471;54;50742;-77
2021/09/22 05:08:46;;;;;;;13.55;9.23;;;;;;;9.30;73.57;101140.13;1087764;54;20050;-79
2021/09/22 05:09:48;;;;;;;10.35;9.20;;;;;;;9.21;74.04;101129.16;1087748;54;20038;-76
2021/09/22 05:10:53;;;;;;;11.95;8.88;;;;;;;9.18;74.10;101131.19;1087753;54;20046;-77
2021/09/22 05:11:55;;;;;;;10.88;8.90;;;;;;;9.21;74.07;101130.97;1087761;54;20091;-77
2021/09/22 05:12:59;;;;;;;11.55;8.48;;;;;;;9.20;73.75;101130.13;1087651;54;20094;-78
2021/09/22 05:14:03;;;;;;;11.65;9.00;;;;;;;9.07;74.19;101131.94;1087769;54;20035;-76
2021/09/22 05:15:06;;;;;;;12.85;9.02;;;;;;;9.03;74.74;101136.66;1087728;54;20034;-77
2021/09/22 05:16:11;;;;;;;10.30;8.88;;;;;;;8.97;74.75;101145.09;1087775;54;20022;-78
2021/09/22 05:17:16;;;;;;;12.25;9.15;;;;;;;8.96;75.03;101147.88;1087592;54;20042;-77
2021/09/22 05:18:18;;;;;;;11.52;9.75;;;;;;;8.99;74.93;101147.63;1087676;54;20713;-75
2021/09/22 05:19:22;;;;;;;10.85;9.05;;;;;;;8.94;74.95;101147.13;1087637;54;20032;-78
2021/09/22 05:20:23;;;;;;;13.18;9.88;;;;;;;8.87;75.18;101147.56;1087904;47;20037;-76
2021/09/22 05:21:27;;;;;;;11.43;9.30;;;;;;;8.87;75.34;101142.22;1087718;54;20030;-78
2021/09/22 05:22:32;;;;;;;11.55;8.75;;;;;;;8.87;75.27;101146.69;1087771;54;20070;-78
2021/09/22 05:23:38;;;;;;;13.85;10.02;;;;;;;8.78;76.07;101142.88;1087729;54;20041;-77
2021/09/22 05:24:43;;;;;;;13.68;10.02;;;;;;;8.74;75.87;101136.03;1087782;54;20018;-78
2021/09/22 05:25:44;;;;;;;14.07;9.60;;;;;;;8.79;75.58;101141.03;1088631;47;20717;-77
2021/09/22 05:26:48;;;;;;;12.23;10.27;;;;;;;8.83;75.58;101146.06;1087622;54;20725;-77
2021/09/22 05:27:50;;;;;;;13.32;9.82;;;;;;;8.79;75.89;101149.88;1087583;54;20094;-76
2021/09/22 05:28:54;;;;;;;12.95;9.68;;;;;;;8.77;76.14;101143.81;1087621;54;20034;-76
2021/09/22 05:29:56;;;;;;;12.18;9.52;;;;;;;8.77;76.02;101142.94;1087560;54;20050;-77
2021/09/22 05:31:00;;;;;;;11.65;10.05;;;;;;;8.74;76.33;101144.88;1092590;39;21043;-78
2021/09/22 05:32:02;;;;;;;12.50;9.93;;;;;;;8.77;76.22;101140.28;1087845;54;20035;-77
2021/09/22 05:33:10;;;;;;;12.13;10.30;;;;;;;8.79;76.46;101149.03;1087804;54;20241;-77
2021/09/22 05:34:12;;;;;;;12.05;9.50;;;;;;;8.78;76.29;101153.53;1087777;54;20038;-78
2021/09/22 05:35:17;;;;;;;14.00;10.00;;;;;;;8.81;76.02;101155.97;1087975;54;20042;-76
2021/09/22 05:36:18;;;;;;;13.20;9.73;;;;;;;8.80;76.45;101148.91;1087990;54;20041;-77
2021/09/22 05:37:23;;;;;;;12.20;10.13;;;;;;;8.84;76.37;101158.44;1087821;54;20035;-78
2021/09/22 05:38:24;;;;;;;13.90;10.25;;;;;;;8.84;76.13;101155.75;1088058;54;20061;-79
2021/09/22 05:39:31;;;;;;;12.30;10.30;;;;;;;8.93;76.04;101154.25;1088043;54;20031;-79
2021/09/22 05:40:36;;;;;;;17.58;10.43;;;;;;;8.95;75.84;101156.84;1088043;54;20030;-79
2021/09/22 05:41:37;;;;;;;12.18;9.55;;;;;;;9.05;75.43;101164.06;1088347;39;20643;-79
2021/09/22 05:42:42;;;;;;;11.48;9.57;;;;;;;9.07;75.26;101157.78;1087931;54;20026;-79
2021/09/22 05:43:43;;;;;;;12.38;10.05;;;;;;;9.02;75.41;101158.09;1088118;54;20026;-81
2021/09/22 05:44:49;;;;;;;13.45;10.05;;;;;;;8.98;75.76;101156.59;1088073;54;20018;-80
2021/09/22 05:45:51;;;;;;;15.25;10.48;;;;;;;8.95;75.93;101157.66;1088032;54;20717;-78
2021/09/22 05:46:55;;;;;;;12.50;10.38;;;;;;;8.98;75.64;101162.81;1087867;54;20030;-78
2021/09/22 05:47:59;;;;;;;14.30;10.07;;;;;;;8.99;75.55;101164.50;1087863;54;20049;-77
2021/09/22 05:49:02;;;;;;;11.25;8.82;;;;;;;9.15;75.44;101168.75;1087944;54;20034;-79
2021/09/22 05:50:07;;;;;;;12.73;9.65;;;;;;;9.14;75.24;101167.03;1088134;54;20035;-78
2021/09/22 05:51:11;;;;;;;14.93;10.82;;;;;;;9.00;76.05;101168.88;1087976;54;20036;-78
2021/09/22 05:52:13;;;;;;;14.77;11.18;;;;;;;8.97;76.02;101165.59;1088048;54;20038;-79
2021/09/22 05:53:20;;;;;;;16.80;11.07;;;;;;;8.92;76.24;101168.56;1088049;54;20030;-77
2021/09/22 05:54:22;;;;;;;12.40;10.57;;;;;;;8.91;76.18;101169.53;1087993;54;20749;-78
2021/09/22 05:55:29;;;;;;;13.32;10.25;;;;;;;8.97;76.35;101171.75;1090397;39;20565;-78
2021/09/22 05:56:30;;;;;;;11.80;10.05;;;;;;;8.84;76.42;101163.75;1087903;54;20030;-77
2021/09/22 05:57:35;;;;;;;12.52;10.02;;;;;;;8.77;76.93;101165.16;1087869;54;20027;-80
2021/09/22 05:58:36;;;;;;;13.38;10.95;;;;;;;8.69;77.19;101168.34;1087931;54;20034;-78
2021/09/22 05:59:42;;;;;;;16.02;12.88;;;;;;;8.70;77.05;101166.50;1087915;54;20029;-78
2021/09/22 06:00:46;;;;;;;17.40;13.63;;;;;;;8.68;77.07;101163.97;1088035;54;20030;-78
2021/09/22 06:01:47;;;;;;;21.55;14.23;;;;;;;8.67;77.39;101162.25;1091014;39;20642;-78
2021/09/22 06:02:51;;;;;;;18.25;12.07;;;;;;;8.65;77.59;101172.16;1087915;54;20034;-78
2021/09/22 06:03:56;;;;;;;14.32;11.15;;;;;;;8.69;77.33;101159.50;1087877;54;20038;-78
2021/09/22 06:04:57;;;;;;;15.38;11.68;;;;;;;8.64;77.27;101166.94;1087945;54;20030;-78
2021/09/22 06:06:01;;;;;;;13.80;10.52;;;;;;;8.62;77.33;101161.72;1088088;46;20138;-78
2021/09/22 06:07:03;;;;;;;12.02;10.00;;;;;;;8.68;77.29;101169.28;1087935;54;20039;-77
2021/09/22 06:08:08;;;;;;;14.82;10.85;;;;;;;8.73;77.03;101158.31;1087633;54;20026;-77
2021/09/22 06:09:12;;;;;;;14.57;10.18;;;;;;;8.83;76.70;101166.53;1087632;54;20042;-78
2021/09/22 06:10:14;;;;;;;13.43;9.07;;;;;;;8.88;76.50;101159.91;1087804;54;20042;-76
2021/09/22 06:11:21;;;;;;;12.43;10.25;;;;;;;8.92;76.22;101157.03;1087908;54;20034;-78
2021/09/22 06:12:22;;;;;;;12.50;9.57;;;;;;;8.89;76.31;101158.09;1087865;54;20775;-77
2021/09/22 06:13:27;;;;;;;12.18;10.00;;;;;;;8.96;76.08;101159.38;1088890;46;20729;-76
2021/09/22 06:14:31;;;;;;;12.95;9.75;;;;;;;9.09;75.86;101159.38;1088018;54;20039;-77
2021/09/22 06:15:35;;;;;;;14.23;9.10;;;;;;;9.11;75.45;101170.78;1087913;54;20783;-78
2021/09/22 06:16:39;;;;;;;16.58;10.63;;;;;;;9.13;75.30;101160.88;1087625;54;20054;-78
2021/09/22 06:17:41;;;;;;;14.75;9.88;;;;;;;9.18;75.51;101168.56;1087909;54;20031;-77
2021/09/22 06:18:45;;;;;;;11.88;9.63;;;;;;;9.28;74.94;101161.59;1088358;39;20712;-78
2021/09/22 06:19:49;;;;;;;12.82;9.18;;;;;;;9.36;74.74;101161.91;1087989;54;20034;-77
2021/09/22 06:20:51;;;;;;;12.10;8.85;;;;;;;9.44;74.56;101160.50;1088036;54;20038;-77
2021/09/22 06:21:55;;;;;;;10.02;8.15;;;;;;;9.60;74.03;101162.91;1087936;54;20034;-78
2021/09/22 06:22:59;;;;;;;13.77;8.63;;;;;;;9.64;73.98;101164.38;1087906;54;20034;-77
2021/09/22 06:24:03;;;;;;;13.10;8.77;;;;;;;9.70;73.96;101163.09;1088054;54;20038;-78
2021/09/22 06:25:07;;;;;;;12.52;9.75;;;;;;;9.72;73.88;101169.19;1087987;54;20034;-77
2021/09/22 06:26:11;;;;;;;11.48;8.35;;;;;;;9.82;73.39;101163.03;1087891;54;20804;-78
2021/09/22 06:27:20;;;;;;;11.95;8.38;;;;;;;9.91;73.32;101158.84;1089271;39;20704;-77
2021/09/22 06:28:21;;;;;;;9.52;7.40;;;;;;;10.02;73.03;101162.56;1087906;54;20038;-78
2021/09/22 06:29:26;;;;;;;11.82;8.40;;;;;;;10.06;72.92;101159.53;1087973;54;20090;-77
2021/09/22 06:30:27;;;;;;;13.23;9.15;;;;;;;10.13;72.80;101159.94;1090463;39;20601;-77
2021/09/22 06:31:36;;;;;;;11.25;9.38;;;;;;;10.17;72.40;101156.06;1088045;54;20034;-78
2021/09/22 06:32:40;;;;;;;12.50;10.10;;;;;;;10.17;72.59;101160.56;1088434;54;20035;-77
2021/09/22 06:33:42;;;;;;;11.80;9.82;;;;;;;10.15;72.40;101161.53;1088214;54;20787;-78
2021/09/22 06:34:46;;;;;;;11.88;9.43;;;;;;;10.17;72.19;101161.41;1090646;39;20610;-78
2021/09/22 06:35:51;;;;;;;12.27;9.18;;;;;;;10.20;72.40;101163.00;1088182;54;20031;-78
2021/09/22 06:36:53;;;;;;;12.90;8.98;;;;;;;10.25;72.17;101164.34;1087994;54;20050;-77
2021/09/22 06:37:57;;;;;;;10.63;8.70;;;;;;;10.26;72.19;101163.38;1088923;39;20831;-78
2021/09/22 06:38:59;;;;;;;13.13;10.98;;;;;;;10.23;72.38;101162.75;1087948;54;20019;-78
2021/09/22 06:40:03;;;;;;;15.18;11.07;;;;;;;10.19;72.56;101169.31;1087912;54;20022;-77
2021/09/22 06:41:08;;;;;;;13.65;10.82;;;;;;;10.24;72.60;101172.50;1088084;54;20037;-77
2021/09/22 06:42:12;;;;;;;12.20;9.85;;;;;;;10.29;72.34;101165.84;1087937;54;20034;-77
2021/09/22 06:43:16;;;;;;;15.68;9.82;;;;;;;10.36;72.27;101165.34;1088011;54;20763;-77
2021/09/22 06:44:21;;;;;;;12.40;9.82;;;;;;;10.40;72.02;101169.53;1087921;54;20098;-78
2021/09/22 06:45:25;;;;;;;22.33;10.63;;;;;;;10.47;72.16;101177.97;1087915;54;20074;-77
2021/09/22 06:46:31;;;;;;;14.10;9.18;;;;;;;10.50;72.04;101172.34;1087845;46;20049;-77
2021/09/22 06:47:33;;;;;;;13.05;9.70;;;;;;;10.55;71.97;101175.56;1087815;54;20034;-77
2021/09/22 06:48:37;;;;;;;11.63;8.65;;;;;;;10.63;71.66;101177.66;1090787;39;20248;-78
2021/09/22 06:49:39;;;;;;;14.25;9.38;;;;;;;10.65;71.37;101173.00;1087801;54;20026;-78
2021/09/22 06:50:43;;;;;;;13.65;9.18;;;;;;;10.68;71.60;101180.81;1087847;54;20034;-77
2021/09/22 06:51:45;;;;;;;9.55;7.88;;;;;;;10.73;71.52;101178.63;1087875;54;20030;-77
2021/09/22 06:52:50;;;;;;;11.65;8.73;;;;;;;10.81;71.27;101186.06;1087865;54;20034;-77
2021/09/22 06:53:54;;;;;;;12.48;8.30;;;;;;;10.84;71.02;101177.81;1087804;54;20026;-77
2021/09/22 06:54:56;;;;;;;10.00;7.65;;;;;;;10.87;71.22;101174.88;1087842;54;20098;-78
2021/09/22 06:56:00;;;;;;;14.27;8.05;;;;;;;10.91;70.90;101181.72;1087848;54;20042;-78
2021/09/22 06:57:02;;;;;;;10.02;7.70;;;;;;;10.99;70.74;101178.44;1087787;54;20832;-78
2021/09/22 06:58:07;;;;;;;13.07;8.38;;;;;;;11.00;70.71;101172.97;1087732;54;20034;-79
2021/09/22 06:59:14;;;;;;;20.42;8.80;;;;;;;10.99;70.61;101173.94;1088800;39;20597;-78
2021/09/22 07:00:16;;;;;;;16.85;9.07;;;;;;;11.03;70.66;101167.38;1088824;46;20039;-77
2021/09/22 07:01:20;;;;;;;12.93;8.38;;;;;;;11.04;70.86;101177.13;1087872;54;20041;-78
2021/09/22 07:02:24;;;;;;;10.43;8.15;;;;;;;11.10;70.59;101172.25;1087788;54;20023;-78
2021/09/22 07:03:28;;;;;;;11.82;7.45;;;;;;;11.16;70.54;101169.94;1087806;54;20034;-78
2021/09/22 07:04:30;;;;;;;19.70;10.55;;;;;;;11.15;70.28;101162.00;1088148;39;20653;-79
2021/09/22 07:05:35;;;;;;;16.15;9.13;;;;;;;11.10;70.58;101169.56;1087823;54;20030;-77
2021/09/22 07:06:37;;;;;;;17.40;10.07;;;;;;;11.01;70.78;101171.13;1090649;46;20034;-79
2021/09/22 07:07:45;;;;;;;14.20;9.10;;;;;;;11.12;70.49;101165.78;1087891;54;20031;-78
2021/09/22 07:08:49;;;;;;;15.85;9.05;;;;;;;11.24;70.07;101169.34;1089210;46;20624;-78
2021/09/22 07:09:54;;;;;;;12.43;8.55;;;;;;;11.33;69.96;101173.09;1091408;39;20976;-78
2021/09/22 07:10:59;;;;;;;14.20;8.57;;;;;;;11.35;69.61;101166.63;1087977;54;20037;-77
2021/09/22 07:12:00;;;;;;;18.08;8.65;;;;;;;11.39;69.56;101172.59;1087928;54;20039;-79
2021/09/22 07:13:05;;;;;;;11.38;8.00;;;;;;;11.43;69.30;101171.38;1087878;54;20038;-78
2021/09/22 07:14:09;;;;;;;14.45;8.23;;;;;;;11.43;69.16;101165.19;1087881;54;20030;-78
2021/09/22 07:15:16;;;;;;;20.27;8.95;;;;;;;11.41;69.26;101167.97;1087844;54;20054;-79
2021/09/22 07:16:20;;;;;;;17.92;9.68;;;;;;;11.47;69.32;101174.66;1088089;54;20039;-78
2021/09/22 07:17:24;;;;;;;26.90;9.13;;;;;;;11.47;69.00;101172.00;1088153;54;20058;-78
2021/09/22 07:18:29;;;;;;;12.45;8.68;;;;;;;11.52;69.23;101169.81;1087965;54;20038;-78
2021/09/22 07:19:30;;;;;;;17.42;10.00;;;;;;;11.38;69.15;101177.09;1087968;54;20043;-78
2021/09/22 07:20:34;;;;;;;14.60;9.30;;;;;;;11.53;68.89;101172.34;1087991;54;20038;-76
2021/09/22 07:21:36;;;;;;;18.17;9.10;;;;;;;11.65;68.90;101170.50;1088177;54;20022;-78
2021/09/22 07:22:40;;;;;;;12.50;8.70;;;;;;;11.73;68.24;101171.69;1088243;54;20015;-78
2021/09/22 07:23:43;;;;;;;14.60;8.48;;;;;;;11.77;68.41;101182.03;1089327;46;20029;-78
2021/09/22 07:24:47;;;;;;;13.05;10.25;;;;;;;11.47;68.94;101175.53;1088107;54;20037;-78
2021/09/22 07:25:59;;;;;;;17.90;11.00;;;;;;;11.44;68.38;101178.44;1089974;46;20041;-79
2021/09/22 07:27:00;;;;;;;12.93;9.73;;;;;;;11.64;68.48;101179.50;1088290;54;20031;-79
2021/09/22 07:28:05;;;;;;;12.52;9.40;;;;;;;11.69;68.40;101174.66;1089280;39;20492;-78
2021/09/22 07:29:07;;;;;;;15.15;9.43;;;;;;;11.63;68.16;101177.81;1089374;39;20644;-78
2021/09/22 07:30:14;;;;;;;12.60;8.57;;;;;;;11.74;68.14;101181.44;1088105;39;20579;-78
2021/09/22 07:31:21;;;;;;;16.15;8.50;;;;;;;11.82;67.79;101176.31;1087901;54;20034;-79
2021/09/22 07:32:23;;;;;;;14.00;9.18;;;;;;;11.84;67.70;101179.72;1087784;54;20019;-79
2021/09/22 07:33:27;;;;;;;14.15;9.20;;;;;;;11.89;67.50;101172.16;1087967;54;20015;-79
2021/09/22 07:34:32;;;;;;;14.35;9.75;;;;;;;11.90;67.63;101179.22;1087813;54;20030;-78
2021/09/22 07:35:36;;;;;;;17.00;10.82;;;;;;;11.78;67.62;101175.72;1087890;54;20039;-78
2021/09/22 07:36:40;;;;;;;18.75;11.13;;;;;;;11.85;67.22;101182.25;1087821;54;20048;-78
2021/09/22 07:37:44;;;;;;;15.50;10.63;;;;;;;11.91;67.08;101174.72;1087780;54;20057;-79
2021/09/22 07:38:46;;;;;;;14.75;11.45;;;;;;;11.93;67.33;101178.97;1087896;54;20034;-78
2021/09/22 07:39:50;;;;;;;12.45;9.63;;;;;;;11.99;67.22;101178.50;1087880;54;20034;-78
2021/09/22 07:40:54;;;;;;;12.43;8.88;;;;;;;12.08;67.00;101186.75;1087896;54;20037;-78
2021/09/22 07:41:58;;;;;;;13.88;9.68;;;;;;;12.10;67.08;101182.09;1088189;39;20588;-78
2021/09/22 07:43:02;;;;;;;15.15;9.52;;;;;;;12.09;67.04;101172.38;1087792;54;20044;-78
2021/09/22 07:44:07;;;;;;;16.58;10.68;;;;;;;12.04;67.12;101179.94;1087903;54;21083;-77
2021/09/22 07:45:13;;;;;;;15.57;9.93;;;;;;;12.01;67.19;101181.06;1087782;54;20627;-78
2021/09/22 07:46:20;;;;;;;18.52;11.05;;;;;;;12.03;67.13;101168.38;1087822;54;20062;-79
2021/09/22 07:47:22;;;;;;;18.95;9.48;;;;;;;12.21;66.45;101176.72;1089229;39;20469;-79
2021/09/22 07:48:27;;;;;;;17.92;11.60;;;;;;;12.22;66.66;101178.41;1087796;54;20042;-78
2021/09/22 07:49:31;;;;;;;15.32;10.65;;;;;;;12.30;66.08;101175.94;1087659;54;20030;-78
2021/09/22 07:50:36;;;;;;;16.35;11.43;;;;;;;12.20;66.52;101177.69;1087847;54;20039;-78
2021/09/22 07:51:37;;;;;;;16.88;11.60;;;;;;;12.31;66.23;101166.91;1087850;54;20051;-80
2021/09/22 07:52:42;;;;;;;18.17;9.98;;;;;;;12.43;66.14;101175.75;1087947;54;20039;-78
2021/09/22 07:53:46;;;;;;;19.25;10.85;;;;;;;12.45;65.71;101175.66;1087695;54;20058;-80
2021/09/22 07:54:48;;;;;;;18.02;11.75;;;;;;;12.46;65.61;101180.88;1087500;54;20053;-77
2021/09/22 07:55:52;;;;;;;19.63;12.18;;;;;;;12.47;65.65;101176.34;1087886;54;20034;-77
2021/09/22 07:56:54;;;;;;;21.23;11.82;;;;;;;12.47;65.63;101177.22;1087736;54;20042;-77
2021/09/22 07:57:58;;;;;;;17.38;10.77;;;;;;;12.52;65.57;101173.28;1087852;54;20034;-78
2021/09/22 07:58:59;;;;;;;15.73;10.55;;;;;;;12.60;65.37;101177.03;1087814;54;20039;-78
2021/09/22 08:00:04;;;;;;;17.65;11.25;;;;;;;12.56;65.20;101175.59;1087882;54;20042;-79
2021/09/22 08:01:11;;;;;;;21.20;14.02;;;;;;;12.63;65.05;101174.09;1087778;54;20053;-76
2021/09/22 08:02:17;;;;;;;17.35;10.68;;;;;;;12.77;65.10;101172.03;1087855;54;21009;-78
2021/09/22 08:03:21;;;;;;;13.75;9.75;;;;;;;12.88;64.59;101173.81;1089401;31;20796;-78
2021/09/22 08:04:23;;;;;;;15.02;10.00;;;;;;;13.02;64.31;101169.94;1088589;39;20685;-78
2021/09/22 08:05:28;;;;;;;14.55;11.02;;;;;;;13.01;64.32;101165.53;1087897;54;21201;-77
2021/09/22 08:06:29;;;;;;;12.80;10.10;;;;;;;13.12;63.89;101170.84;1087762;54;20057;-78
2021/09/22 08:07:33;;;;;;;16.85;11.30;;;;;;;13.17;63.64;101165.06;1087807;54;20037;-79
2021/09/22 08:08:38;;;;;;;17.15;12.52;;;;;;;13.11;63.39;101166.44;1087849;54;20030;-78
2021/09/22 08:09:39;;;;;;;19.17;13.60;;;;;;;13.11;63.66;101158.41;1087349;54;20034;-78
2021/09/22 08:10:44;;;;;;;22.02;14.52;;;;;;;13.10;63.21;101162.06;1087926;54;20031;-78
2021/09/22 08:11:48;;;;;;;26.35;14.18;;;;;;;13.00;63.48;101171.91;1088256;39;21032;-79
2021/09/22 08:12:51;;;;;;;28.55;15.77;;;;;;;12.91;63.47;101163.66;1087779;54;20030;-78
2021/09/22 08:13:56;;;;;;;24.50;14.95;;;;;;;12.94;63.46;101166.06;1089576;46;20042;-77
2021/09/22 08:14:57;;;;;;;20.88;15.93;;;;;;;12.90;63.41;101167.31;1088166;54;20031;-77
2021/09/22 08:16:03;;;;;;;27.20;21.77;;;;;;;13.10;63.38;101172.78;1088150;54;20019;-79
2021/09/22 08:17:05;;;;;;;16.48;13.43;;;;;;;13.23;62.94;101170.72;1088100;54;20041;-78
2021/09/22 08:18:12;;;;;;;27.85;13.00;;;;;;;13.23;62.66;101165.34;1088052;54;20074;-78
2021/09/22 08:19:13;;;;;;;18.20;12.75;;;;;;;13.21;63.05;101174.53;1088214;54;20030;-78
2021/09/22 08:20:29;;;;;;;22.08;12.55;;;;;;;13.53;61.89;101170.88;1088637;46;20037;-78
2021/09/22 08:21:33;;;;;;;17.77;12.90;;;;;;;13.54;62.05;101167.22;1088218;54;20038;-77
2021/09/22 08:22:37;;;;;;;24.17;14.23;;;;;;;13.57;61.88;101165.09;1092353;46;20046;-79
2021/09/22 08:23:41;;;;;;;22.55;13.80;;;;;;;13.66;61.63;101160.72;1088145;54;20038;-78
2021/09/22 08:24:49;;;;;;;21.50;14.13;;;;;;;13.39;61.81;101159.50;1088218;54;20027;-79
2021/09/22 08:25:53;;;;;;;24.15;14.02;;;;;;;13.40;62.03;101163.06;1088326;54;20031;-80
2021/09/22 08:26:55;;;;;;;22.92;14.95;;;;;;;13.63;61.62;101161.00;1088272;54;20046;-79
2021/09/22 08:27:59;;;;;;;18.63;14.18;;;;;;;13.69;61.76;101160.44;1088309;54;20041;-79
2021/09/22 08:29:04;;;;;;;21.63;15.23;;;;;;;13.63;61.41;101162.84;1091898;46;20058;-78
2021/09/22 08:30:08;;;;;;;20.90;15.20;;;;;;;13.69;61.43;101162.31;1088401;54;20027;-79
2021/09/22 08:31:14;;;;;;;21.85;14.70;;;;;;;13.80;60.80;101162.16;1088375;54;20018;-78
2021/09/22 08:32:18;;;;;;;21.23;12.88;;;;;;;14.06;60.54;101171.53;1088368;54;20018;-78
2021/09/22 08:33:30;;;;;;;21.25;13.90;;;;;;;14.05;59.45;101170.69;1088202;54;20023;-78
2021/09/22 08:34:34;;;;;;;21.52;14.35;;;;;;;14.10;59.85;101171.13;1088172;54;20034;-80
2021/09/22 08:35:38;;;;;;;23.42;14.85;;;;;;;13.95;60.34;101172.53;1091671;39;20893;-79
2021/09/22 08:36:41;;;;;;;27.42;15.15;;;;;;;13.94;60.32;101171.66;1088057;54;20041;-81
2021/09/22 08:37:47;;;;;;;17.35;13.93;;;;;;;14.32;59.31;101174.53;1087855;54;20035;-78
2021/09/22 08:38:50;;;;;;;18.00;12.35;;;;;;;14.68;58.83;101169.41;1087994;54;20030;-79
2021/09/22 08:39:55;;;;;;;16.35;11.15;;;;;;;14.94;58.20;101164.28;1087882;54;20027;-79
2021/09/22 08:40:59;;;;;;;15.13;10.57;;;;;;;15.10;57.56;101168.19;1087576;54;20038;-81
2021/09/22 08:42:01;;;;;;;18.23;11.52;;;;;;;15.06;57.58;101170.31;1088263;39;20876;-80
2021/09/22 08:43:05;;;;;;;17.08;11.15;;;;;;;15.34;57.32;101164.97;1087754;54;20034;-79
2021/09/22 08:44:08;;;;;;;14.98;10.82;;;;;;;15.54;56.77;101165.69;1087909;54;20041;-79
2021/09/22 08:45:13;;;;;;;17.00;12.18;;;;;;;15.65;55.98;101167.38;1090338;39;20645;-79
2021/09/22 08:46:18;;;;;;;15.02;12.02;;;;;;;15.80;56.01;101161.44;1087740;54;20065;-78
2021/09/22 08:47:23;;;;;;;16.77;11.85;;;;;;;15.93;55.40;101164.66;1087773;54;20042;-79
2021/09/22 08:48:30;;;;;;;15.20;11.45;;;;;;;15.99;55.04;101161.34;1087765;54;20042;-79
2021/09/22 08:49:31;;;;;;;15.30;10.63;;;;;;;16.23;54.67;101159.91;1087775;54;20038;-80
2021/09/22 08:50:36;;;;;;;18.48;10.68;;;;;;;16.36;54.18;101163.03;1087707;54;20038;-79
2021/09/22 08:51:41;;;;;;;19.17;11.98;;;;;;;16.25;53.96;101165.97;1087781;54;20090;-79
2021/09/22 08:52:46;;;;;;;17.08;13.18;;;;;;;16.05;53.25;101160.75;1087592;54;20052;-79
2021/09/22 08:53:50;;;;;;;16.50;12.77;;;;;;;16.03;53.35;101154.66;1087749;54;20034;-79
2021/09/22 08:54:52;;;;;;;17.33;12.23;;;;;;;16.13;53.76;101161.81;1087655;54;20039;-78
2021/09/22 08:55:56;;;;;;;20.55;12.38;;;;;;;16.14;53.57;101144.63;1087724;54;20034;-77
2021/09/22 08:57:01;;;;;;;18.52;13.38;;;;;;;16.23;53.27;101151.81;1087782;54;20030;-79
2021/09/22 08:58:05;;;;;;;16.10;12.32;;;;;;;16.31;52.86;101151.88;1087297;54;20057;-78
2021/09/22 08:59:08;;;;;;;16.10;12.50;;;;;;;16.38;53.01;101149.41;1087351;54;20736;-80
2021/09/22 09:00:15;;;;;;;16.10;11.65;;;;;;;16.53;52.67;101147.81;1087521;54;20034;-80
2021/09/22 09:01:20;;;;;;;16.58;11.95;;;;;;;16.52;52.38;101151.53;1087679;54;20058;-78
2021/09/22 09:02:24;;;;;;;15.60;12.15;;;;;;;16.61;52.37;101148.88;1087825;54;20946;-78
2021/09/22 09:03:33;;;;;;;18.15;12.85;;;;;;;16.74;51.25;101151.16;1087324;54;20034;-79
2021/09/22 09:04:38;;;;;;;14.68;13.15;;;;;;;16.78;51.27;101152.56;1087663;54;20054;-79
2021/09/22 09:05:43;;;;;;;14.57;11.65;;;;;;;16.95;51.54;101146.28;1087568;54;20746;-77
2021/09/22 09:06:48;;;;;;;16.90;10.68;;;;;;;17.14;51.15;101147.88;1087687;54;20434;-79
2021/09/22 09:07:54;;;;;;;16.95;11.57;;;;;;;17.26;50.70;101147.59;1087585;54;20046;-78
2021/09/22 09:08:57;;;;;;;15.45;11.60;;;;;;;17.44;50.26;101142.94;1087741;54;20031;-79
2021/09/22 09:10:08;;;;;;;18.17;11.40;;;;;;;17.44;49.40;101144.81;1087417;54;20034;-80
2021/09/22 09:11:13;;;;;;;14.15;10.50;;;;;;;17.62;49.92;101144.69;1087592;54;20034;-79
2021/09/22 09:12:19;;;;;;;13.02;10.00;;;;;;;17.76;49.57;101145.91;1087770;54;20034;-80
2021/09/22 09:13:23;;;;;;;15.82;11.05;;;;;;;17.69;49.93;101139.47;1087628;54;20334;-80
2021/09/22 09:14:29;;;;;;;14.30;11.85;;;;;;;17.73;49.50;101143.56;1087966;39;20315;-80
2021/09/22 09:15:33;;;;;;;20.13;12.90;;;;;;;17.35;50.06;101132.28;1087548;54;20887;-80
2021/09/22 09:16:39;;;;;;;14.15;12.60;;;;;;;17.34;49.95;101141.41;1087607;54;20041;-80
2021/09/22 09:17:46;;;;;;;13.88;11.45;;;;;;;17.53;49.28;101132.16;1087650;54;20034;-77
2021/09/22 09:18:55;;;;;;;13.07;11.23;;;;;;;17.65;49.13;101138.97;1087679;54;20030;-79
2021/09/22 09:19:59;;;;;;;15.63;11.57;;;;;;;17.49;49.33;101137.06;1087638;54;20035;-80
2021/09/22 09:21:04;;;;;;;23.58;11.02;;;;;;;17.54;49.35;101144.66;1087536;54;20035;-80
2021/09/22 09:22:10;;;;;;;14.20;11.20;;;;;;;17.55;49.23;101135.56;1087667;54;20043;-82
2021/09/22 09:23:16;;;;;;;17.65;10.73;;;;;;;17.62;49.44;101136.59;1087674;54;20030;-82
2021/09/22 09:24:28;;;;;;;19.42;9.75;;;;;;;17.82;48.53;101139.88;1087652;54;20822;-80
2021/09/22 09:25:34;;;;;;;13.35;10.00;;;;;;;18.04;48.22;101145.69;1087744;54;20035;-80
2021/09/22 09:26:40;;;;;;;14.27;11.07;;;;;;;18.00;48.08;101133.50;1087675;54;20038;-79
2021/09/22 09:27:44;;;;;;;20.40;13.55;;;;;;;17.58;48.93;101133.38;1087525;54;20038;-79
2021/09/22 09:28:52;;;;;;;15.85;12.75;;;;;;;17.38;48.52;101134.69;1087696;54;20042;-79
2021/09/22 09:29:55;;;;;;;16.50;12.88;;;;;;;17.11;49.24;101129.31;1087678;54;20027;-78
2021/09/22 09:31:01;;;;;;;20.88;13.32;;;;;;;17.20;49.02;101129.34;1087729;54;20041;-80
2021/09/22 09:32:20;;;;;;;21.65;13.70;;;;;;;17.19;48.59;101128.53;1087630;54;20146;-78
2021/09/22 09:33:42;;;;;;;16.63;11.60;;;;;;;17.54;48.16;101121.22;1087676;54;20045;-80
2021/09/22 09:35:17;;;;;;;14.10;11.60;;;;;;;17.60;47.48;101125.94;1087636;54;20039;-81
2021/09/22 09:36:32;;;;;;;18.65;12.50;;;;;;;17.48;47.57;101119.13;1087168;54;20056;-78
2021/09/22 09:37:35;;;;;;;15.85;11.80;;;;;;;17.53;47.91;101124.06;1087365;54;20169;-81
2021/09/22 09:38:48;;;;;;;13.80;11.32;;;;;;;17.81;47.16;101115.66;1087993;39;20531;-81
2021/09/22 09:39:52;;;;;;;11.25;9.85;;;;;;;18.09;46.93;101118.97;1087760;54;20034;-79
2021/09/22 09:40:55;;;;;;;11.40;9.40;;;;;;;18.31;46.40;101113.91;1087676;54;20041;-82
2021/09/22 09:42:01;;;;;;;15.65;10.40;;;;;;;18.07;46.37;101121.84;1087762;54;20034;-80
2021/09/22 09:43:05;;;;;;;17.05;11.18;;;;;;;17.99;46.85;101112.84;1087609;54;20078;-81
2021/09/22 09:44:11;;;;;;;16.38;9.63;;;;;;;18.30;46.20;101110.31;1088365;47;20045;-83
2021/09/22 09:45:14;;;;;;;14.07;10.00;;;;;;;18.56;45.96;101098.47;1087270;54;20438;-81
2021/09/22 09:46:22;;;;;;;13.07;8.55;;;;;;;18.88;45.26;101104.00;1087517;54;20030;-81
2021/09/22 09:47:26;;;;;;;17.75;10.98;;;;;;;19.01;44.87;101098.88;1087475;47;20046;-81
2021/09/22 09:48:30;;;;;;;14.35;8.77;;;;;;;19.12;44.82;101093.09;1087379;54;20035;-80
2021/09/22 09:49:35;;;;;;;21.80;9.40;;;;;;;19.02;44.81;101097.88;1087755;54;20035;-81
2021/09/22 09:50:41;;;;;;;13.85;10.50;;;;;;;19.24;44.16;101090.00;1087626;54;20034;-80
2021/09/22 09:51:50;;;;;;;12.98;7.78;;;;;;;19.41;43.96;101090.75;1087670;54;20031;-81
2021/09/22 09:52:52;;;;;;;14.90;8.48;;;;;;;19.48;43.70;101083.59;1088225;47;20061;-80
2021/09/22 09:54:07;;;;;;;14.50;7.95;;;;;;;19.54;43.01;101087.47;1088110;39;21028;-80
2021/09/22 09:55:18;;;;;;;11.00;7.53;;;;;;;19.70;42.72;101095.50;1087724;54;20041;-80
2021/09/22 09:56:23;;;;;;;9.43;6.80;;;;;;;19.61;43.12;101088.44;1088184;47;20095;-80
2021/09/22 09:57:27;;;;;;;10.75;7.07;;;;;;;19.69;43.25;101085.66;1087691;54;20034;-80
2021/09/22 09:58:42;;;;;;;11.52;6.60;;;;;;;19.83;42.83;101084.03;1090321;47;20027;-81
2021/09/22 09:59:48;;;;;;;10.05;6.43;;;;;;;19.88;42.40;101084.38;1087741;54;20018;-80
2021/09/22 10:01:01;;;;;;;9.80;6.68;;;;;;;20.13;42.02;101077.88;1087768;54;20035;-81
2021/09/22 10:02:08;;;;;;;7.15;5.38;;;;;;;20.27;41.96;101079.81;1087910;47;20030;-81
2021/09/22 10:03:11;;;;;;;10.57;6.38;;;;;;;20.34;41.60;101082.66;1087601;54;20023;-81